createdAt,value
2023-03-26T00:02:24.622Z,8.43
2023-03-26T00:04:53.335Z,8.39
2023-03-26T00:07:21.299Z,8.41
2023-03-26T00:09:49.384Z,8.41
2023-03-26T00:12:18.810Z,8.40
2023-03-26T00:14:46.897Z,8.40
2023-03-26T00:17:16.227Z,8.40
2023-03-26T00:19:44.524Z,8.38
2023-03-26T00:22:13.689Z,8.38
2023-03-26T00:24:46.003Z,8.35
2023-03-26T00:27:14.707Z,8.33
2023-03-26T00:29:42.674Z,8.32
2023-03-26T00:32:10.648Z,8.29
2023-03-26T00:34:41.487Z,8.26
2023-03-26T00:37:09.474Z,8.27
2023-03-26T00:39:37.541Z,8.28
2023-03-26T00:42:08.347Z,8.30
2023-03-26T00:44:36.371Z,8.32
2023-03-26T00:47:04.338Z,8.33
2023-03-26T00:49:32.317Z,8.36
2023-03-26T00:52:03.352Z,8.39
2023-03-26T00:54:31.457Z,8.43
2023-03-26T00:56:59.479Z,8.45
2023-03-26T00:59:30.587Z,8.43
2023-03-26T01:01:58.667Z,8.44
2023-03-26T01:04:30.989Z,8.44
2023-03-26T01:07:02.940Z,8.46
2023-03-26T01:09:33.835Z,8.48
2023-03-26T01:12:02.869Z,8.49
2023-03-26T01:14:31.035Z,8.50
2023-03-26T01:16:59.997Z,8.50
2023-03-26T01:19:30.557Z,8.49
2023-03-26T01:21:59.371Z,8.48
2023-03-26T01:24:28.781Z,8.46
2023-03-26T01:27:06.089Z,8.43
2023-03-26T01:29:39.519Z,8.43
2023-03-26T01:32:15.609Z,8.43
2023-03-26T01:34:50.883Z,8.42
2023-03-26T01:37:22.267Z,8.42
2023-03-26T01:39:57.086Z,8.42
2023-03-26T01:42:34.572Z,8.38
2023-03-26T01:45:04.906Z,8.37
2023-03-26T01:47:33.510Z,8.37
2023-03-26T01:50:01.438Z,8.37
2023-03-26T01:52:31.722Z,8.36
2023-03-26T01:55:01.329Z,8.36
2023-03-26T01:57:34.982Z,8.35
2023-03-26T02:00:11.752Z,8.37
2023-03-26T02:02:46.458Z,8.37
2023-03-26T02:05:17.041Z,8.37
2023-03-26T02:07:47.964Z,8.36
2023-03-26T02:10:18.946Z,8.36
2023-03-26T02:12:47.008Z,8.36
2023-03-26T02:15:15.015Z,8.36
2023-03-26T02:17:43.258Z,8.36
2023-03-26T02:20:12.783Z,8.35
2023-03-26T02:22:42.091Z,8.34
2023-03-26T02:25:10.946Z,8.30
2023-03-26T02:27:40.683Z,8.28
2023-03-26T02:30:11.172Z,8.24
2023-03-26T02:32:40.240Z,8.25
2023-03-26T02:35:08.773Z,8.25
2023-03-26T02:37:36.781Z,8.27
2023-03-26T02:40:06.274Z,8.28
2023-03-26T02:42:34.157Z,8.29
2023-03-26T02:45:03.425Z,8.28
2023-03-26T02:47:31.536Z,8.27
2023-03-26T02:49:59.491Z,8.26
2023-03-26T02:52:27.500Z,8.23
2023-03-26T02:54:55.613Z,8.21
2023-03-26T02:57:23.922Z,8.22
2023-03-26T02:59:52.983Z,8.23
2023-03-26T03:02:24.530Z,8.23
2023-03-26T03:04:52.981Z,8.27
2023-03-26T03:07:22.879Z,8.27
2023-03-26T03:09:50.986Z,8.31
2023-03-26T03:12:19.096Z,8.32
2023-03-26T03:14:47.057Z,8.35
2023-03-26T03:17:15.062Z,8.37
2023-03-26T03:19:44.479Z,8.35
2023-03-26T03:22:12.532Z,8.39
2023-03-26T03:24:43.936Z,8.42
2023-03-26T03:27:12.941Z,8.43
2023-03-26T03:29:41.497Z,8.44
2023-03-26T03:32:09.477Z,8.45
2023-03-26T03:34:38.725Z,8.46
2023-03-26T03:37:08.131Z,8.47
2023-03-26T03:39:36.202Z,8.52
2023-03-26T03:42:04.256Z,8.56
2023-03-26T03:44:32.295Z,8.60
2023-03-26T03:47:00.174Z,8.61
2023-03-26T03:49:28.146Z,8.65
2023-03-26T03:51:56.073Z,8.64
2023-03-26T03:54:25.990Z,8.69
2023-03-26T03:56:54.189Z,8.71
2023-03-26T03:59:22.208Z,8.71
2023-03-26T04:01:50.974Z,8.74
2023-03-26T04:04:19.096Z,8.79
2023-03-26T04:06:47.215Z,8.83
2023-03-26T04:09:15.110Z,8.85
2023-03-26T04:11:44.471Z,8.88
2023-03-26T04:14:12.443Z,8.94
2023-03-26T04:16:40.586Z,8.96
2023-03-26T04:19:08.629Z,8.96
2023-03-26T04:21:38.172Z,9.02
2023-03-26T04:24:07.319Z,9.08
2023-03-26T04:26:35.657Z,9.07
2023-03-26T04:29:07.196Z,9.16
2023-03-26T04:31:36.412Z,9.24
2023-03-26T04:34:07.574Z,9.30
2023-03-26T04:36:35.893Z,9.31
2023-03-26T04:39:05.455Z,9.29
2023-03-26T04:41:33.417Z,9.31
2023-03-26T04:44:02.183Z,9.40
2023-03-26T04:46:33.793Z,9.48
2023-03-26T04:49:02.523Z,9.53
2023-03-26T04:51:38.475Z,9.58
2023-03-26T04:54:07.551Z,9.66
2023-03-26T04:56:40.662Z,9.74
2023-03-26T04:59:13.751Z,9.81
2023-03-26T05:01:46.089Z,9.80
2023-03-26T05:04:14.526Z,9.73
2023-03-26T05:06:43.236Z,9.86
2023-03-26T05:09:11.664Z,9.91
2023-03-26T05:11:39.725Z,9.88
2023-03-26T05:14:08.389Z,9.90
2023-03-26T05:16:37.733Z,10.00
2023-03-26T05:19:07.194Z,10.07
2023-03-26T05:21:35.443Z,10.08
2023-03-26T05:24:03.636Z,10.11
2023-03-26T05:26:31.740Z,10.13
2023-03-26T05:28:59.796Z,10.18
2023-03-26T05:31:28.299Z,10.20
2023-03-26T05:33:57.059Z,10.25
2023-03-26T05:36:28.461Z,10.27
2023-03-26T05:38:56.686Z,10.27
2023-03-26T05:41:24.796Z,10.27
2023-03-26T05:43:52.794Z,10.21
2023-03-26T05:46:23.486Z,10.15
2023-03-26T05:48:52.186Z,10.08
2023-03-26T05:51:20.234Z,10.02
2023-03-26T05:53:49.811Z,9.96
2023-03-26T05:56:17.786Z,9.95
2023-03-26T05:58:45.953Z,9.99
2023-03-26T06:01:17.224Z,10.05
2023-03-26T06:03:46.159Z,10.10
2023-03-26T06:06:16.511Z,10.14
2023-03-26T06:08:46.845Z,10.14
2023-03-26T06:11:16.576Z,10.10
2023-03-26T06:13:44.902Z,10.01
2023-03-26T06:16:27.269Z,9.96
2023-03-26T06:18:57.389Z,9.88
2023-03-26T06:21:25.749Z,9.79
2023-03-26T06:23:53.754Z,9.73
2023-03-26T06:26:23.278Z,9.71
2023-03-26T06:28:51.341Z,9.69
2023-03-26T06:31:19.653Z,9.59
2023-03-26T06:33:48.938Z,9.55
2023-03-26T06:36:16.884Z,9.56
2023-03-26T06:38:44.796Z,9.62
2023-03-26T06:41:12.809Z,9.71
2023-03-26T06:43:42.110Z,9.79
2023-03-26T06:46:10.480Z,9.85
2023-03-26T06:48:38.612Z,9.90
2023-03-26T06:51:07.132Z,9.92
2023-03-26T06:53:35.130Z,9.94
2023-03-26T06:56:03.440Z,9.92
2023-03-26T06:58:31.449Z,9.91
2023-03-26T07:01:00.837Z,9.89
2023-03-26T07:03:29.707Z,9.76
2023-03-26T07:05:57.635Z,9.78
2023-03-26T07:08:26.500Z,9.81
2023-03-26T07:10:54.717Z,9.80
2023-03-26T07:13:23.311Z,9.76
2023-03-26T07:15:51.250Z,9.74
2023-03-26T07:18:20.606Z,9.75
2023-03-26T07:20:48.863Z,9.74
2023-03-26T07:23:20.309Z,9.79
2023-03-26T07:25:49.884Z,9.83
2023-03-26T07:28:24.500Z,9.83
2023-03-26T07:30:58.103Z,9.87
2023-03-26T07:33:30.707Z,9.80
2023-03-26T07:36:04.725Z,9.76
2023-03-26T07:38:38.422Z,9.68
2023-03-26T07:41:10.080Z,9.65
2023-03-26T07:43:55.746Z,9.64
2023-03-26T07:46:28.898Z,9.71
2023-03-26T07:49:01.907Z,9.79
2023-03-26T07:51:30.226Z,9.78
2023-03-26T07:54:00.726Z,9.84
2023-03-26T07:56:34.490Z,9.78
2023-03-26T07:59:07.950Z,9.80
2023-03-26T08:01:46.785Z,9.81
2023-03-26T08:04:32.789Z,9.83
2023-03-26T08:07:06.491Z,9.80
2023-03-26T08:09:36.764Z,9.78
2023-03-26T08:12:10.202Z,9.73
2023-03-26T08:14:45.626Z,9.55
2023-03-26T08:17:16.338Z,9.53
2023-03-26T08:20:00.010Z,9.55
2023-03-26T08:22:31.693Z,9.56
2023-03-26T08:25:05.764Z,9.44
2023-03-26T08:27:38.772Z,9.40
2023-03-26T08:30:10.368Z,9.51
2023-03-26T08:32:38.631Z,9.44
2023-03-26T08:35:07.362Z,9.40
2023-03-26T08:37:36.863Z,9.36
2023-03-26T08:40:04.918Z,9.22
2023-03-26T08:43:00.055Z,9.13
2023-03-26T08:45:39.481Z,9.09
2023-03-26T08:48:40.640Z,9.04
2023-03-26T08:51:23.562Z,8.99
2023-03-26T08:54:03.448Z,8.94
2023-03-26T08:56:36.439Z,8.79
2023-03-26T08:59:21.529Z,8.82
2023-03-26T09:02:10.587Z,8.83
2023-03-26T09:04:56.430Z,8.96
2023-03-26T09:07:39.095Z,8.98
2023-03-26T09:10:21.529Z,8.96
2023-03-26T09:12:50.985Z,8.98
2023-03-26T09:15:31.726Z,8.98
2023-03-26T09:18:19.499Z,8.92
2023-03-26T09:21:09.088Z,8.87
2023-03-26T09:23:55.032Z,8.82
2023-03-26T09:26:28.515Z,8.84
2023-03-26T09:29:20.703Z,8.83
2023-03-26T09:32:05.019Z,8.88
2023-03-26T09:34:34.761Z,8.90
2023-03-26T09:37:20.540Z,8.89
2023-03-26T09:39:54.703Z,8.85
2023-03-26T09:42:33.093Z,8.90
2023-03-26T09:45:22.787Z,8.93
2023-03-26T09:48:08.947Z,8.98
2023-03-26T09:50:41.530Z,9.02
2023-03-26T09:53:30.567Z,8.99
2023-03-26T09:56:04.810Z,8.91
2023-03-26T09:58:51.747Z,8.89
2023-03-26T10:01:25.397Z,8.82
2023-03-26T10:03:59.462Z,8.72
2023-03-26T10:06:42.738Z,8.68
2023-03-26T10:09:23.993Z,8.68
2023-03-26T10:12:00.219Z,8.67
2023-03-26T10:14:33.908Z,8.71
2023-03-26T10:17:06.740Z,8.74
2023-03-26T10:19:44.589Z,8.79
2023-03-26T10:22:21.746Z,8.77
2023-03-26T10:25:02.924Z,8.81
2023-03-26T10:27:40.618Z,8.77
2023-03-26T10:30:23.929Z,8.83
2023-03-26T10:32:59.193Z,8.84
2023-03-26T10:35:32.805Z,8.89
2023-03-26T10:38:10.317Z,8.91
2023-03-26T10:40:43.846Z,8.89
2023-03-26T10:43:29.606Z,8.98
2023-03-26T10:46:11.255Z,8.85
2023-03-26T10:48:47.838Z,8.88
2023-03-26T10:51:25.175Z,8.94
2023-03-26T10:53:55.022Z,8.94
2023-03-26T10:56:24.713Z,8.98
2023-03-26T10:58:52.762Z,8.94
2023-03-26T11:01:25.760Z,8.97
2023-03-26T11:03:55.041Z,8.98
2023-03-26T11:06:31.395Z,8.98
2023-03-26T11:09:04.603Z,8.89
2023-03-26T11:11:38.755Z,8.89
2023-03-26T11:14:16.844Z,8.92
2023-03-26T11:16:56.286Z,8.84
2023-03-26T11:19:28.802Z,8.88
2023-03-26T11:22:01.934Z,8.89
2023-03-26T11:24:44.632Z,8.94
2023-03-26T11:27:20.929Z,8.84
2023-03-26T11:29:54.635Z,8.83
2023-03-26T11:32:25.857Z,8.92
2023-03-26T11:34:59.460Z,8.91
2023-03-26T11:37:30.783Z,8.89
2023-03-26T11:40:00.021Z,8.93
2023-03-26T11:42:30.001Z,8.81
2023-03-26T11:45:00.817Z,8.88
2023-03-26T11:47:33.403Z,8.81
2023-03-26T11:50:02.949Z,8.83
2023-03-26T11:52:31.304Z,8.80
2023-03-26T11:54:59.547Z,8.76
2023-03-26T11:57:29.586Z,8.76
2023-03-26T12:00:03.764Z,8.81
2023-03-26T12:02:39.332Z,8.86
2023-03-26T12:05:15.681Z,8.85
2023-03-26T12:07:47.210Z,8.78
2023-03-26T12:10:38.970Z,8.73
2023-03-26T12:13:23.009Z,8.79
2023-03-26T12:15:51.117Z,8.80
2023-03-26T12:18:24.388Z,8.90
2023-03-26T12:21:03.268Z,8.94
2023-03-26T12:23:38.906Z,8.98
2023-03-26T12:26:13.390Z,8.98
2023-03-26T12:28:45.380Z,8.94
2023-03-26T12:31:18.484Z,8.85
2023-03-26T12:33:52.946Z,8.84
2023-03-26T12:36:23.483Z,8.69
2023-03-26T12:39:16.790Z,8.66
2023-03-26T12:44:42.054Z,8.73
2023-03-26T12:44:54.889Z,8.79
2023-03-26T12:48:00.564Z,8.87
2023-03-26T12:50:15.709Z,8.95
2023-03-26T12:52:53.909Z,8.91
2023-03-26T12:55:36.840Z,8.93
2023-03-26T12:58:14.277Z,8.89
2023-03-26T13:00:49.539Z,8.92
2023-03-26T13:03:38.175Z,8.89
2023-03-26T13:06:24.332Z,8.85
2023-03-26T13:09:08.850Z,8.87
2023-03-26T13:11:43.093Z,8.76
2023-03-26T13:14:22.381Z,8.78
2023-03-26T13:16:54.134Z,8.78
2023-03-26T13:19:24.650Z,8.73
2023-03-26T13:22:01.551Z,8.67
2023-03-26T13:24:35.521Z,8.66
2023-03-26T13:27:14.933Z,8.68
2023-03-26T13:29:51.975Z,8.66
2023-03-26T13:32:24.237Z,8.61
2023-03-26T13:35:03.747Z,8.54
2023-03-26T13:37:38.593Z,8.59
2023-03-26T13:40:15.702Z,8.56
2023-03-26T13:42:49.548Z,8.47
2023-03-26T13:45:25.793Z,8.42
2023-03-26T13:47:56.392Z,8.47
2023-03-26T13:50:26.894Z,8.42
2023-03-26T13:53:00.303Z,8.37
2023-03-26T13:55:31.266Z,8.34
2023-03-26T13:58:05.097Z,8.34
2023-03-26T14:00:43.662Z,8.34
2023-03-26T14:03:17.873Z,8.29
2023-03-26T14:05:48.125Z,8.34
2023-03-26T14:08:21.158Z,8.31
2023-03-26T14:10:53.160Z,8.33
2023-03-26T14:13:25.143Z,8.29
2023-03-26T14:15:57.411Z,8.31
2023-03-26T14:18:29.518Z,8.31
2023-03-26T14:21:08.516Z,8.32
2023-03-26T14:23:58.456Z,8.30
2023-03-26T14:26:37.354Z,8.26
2023-03-26T14:29:18.790Z,8.26
2023-03-26T14:31:52.557Z,8.28
2023-03-26T14:34:38.536Z,8.30
2023-03-26T14:37:28.206Z,8.30
2023-03-26T14:40:15.015Z,8.33
2023-03-26T14:42:44.660Z,8.24
2023-03-26T14:45:27.351Z,8.26
2023-03-26T14:48:09.797Z,8.20
2023-03-26T14:50:48.121Z,8.27
2023-03-26T14:53:20.164Z,8.23
2023-03-26T14:56:02.625Z,8.15
2023-03-26T14:58:45.332Z,8.22
2023-03-26T15:01:25.446Z,8.24
2023-03-26T15:04:14.432Z,8.20
2023-03-26T15:06:59.205Z,8.20
2023-03-26T15:09:49.408Z,8.16
2023-03-26T15:12:25.865Z,8.15
2023-03-26T15:15:26.158Z,8.15
2023-03-26T15:18:17.919Z,8.08
2023-03-26T15:21:00.837Z,8.07
2023-03-26T15:23:47.500Z,8.13
2023-03-26T15:26:37.247Z,8.09
2023-03-26T15:29:14.081Z,8.03
2023-03-26T15:32:00.742Z,8.00
2023-03-26T15:34:48.796Z,7.99
2023-03-26T15:37:37.371Z,7.95
2023-03-26T15:40:25.910Z,7.94
2023-03-26T15:43:01.619Z,7.96
2023-03-26T15:45:38.972Z,7.94
2023-03-26T15:48:16.116Z,7.97
2023-03-26T15:50:56.063Z,7.95
2023-03-26T15:53:35.536Z,7.97
2023-03-26T15:56:15.065Z,7.99
2023-03-26T15:58:48.325Z,7.94
2023-03-26T16:01:26.073Z,7.96
2023-03-26T16:03:59.745Z,7.89
2023-03-26T16:06:31.369Z,7.90
2023-03-26T16:09:08.106Z,7.88
2023-03-26T16:11:59.800Z,7.92
2023-03-26T16:14:42.906Z,7.89
2023-03-26T16:17:17.774Z,7.89
2023-03-26T16:19:56.632Z,7.90
2023-03-26T16:22:42.973Z,7.89
2023-03-26T16:25:27.619Z,7.98
2023-03-26T16:28:21.385Z,7.89
2023-03-26T16:31:04.342Z,7.88
2023-03-26T16:33:54.814Z,7.89
2023-03-26T16:36:34.578Z,7.93
2023-03-26T16:39:13.658Z,7.90
2023-03-26T16:41:56.566Z,7.94
2023-03-26T16:44:40.182Z,7.96
2023-03-26T16:47:13.434Z,7.95
2023-03-26T16:50:08.516Z,7.93
2023-03-26T16:52:44.187Z,7.92
2023-03-26T16:55:19.912Z,7.83
2023-03-26T16:57:53.948Z,7.88
2023-03-26T17:00:27.524Z,7.89
2023-03-26T17:03:00.151Z,7.94
2023-03-26T17:05:35.435Z,7.99
2023-03-26T17:08:07.468Z,7.99
2023-03-26T17:10:41.321Z,7.96
2023-03-26T17:13:11.613Z,7.92
2023-03-26T17:15:44.719Z,7.90
2023-03-26T17:18:23.064Z,7.92
2023-03-26T17:20:59.836Z,7.88
2023-03-26T17:23:31.884Z,7.91
2023-03-26T17:26:05.217Z,7.93
2023-03-26T17:28:42.028Z,7.91
2023-03-26T17:31:17.499Z,7.89
2023-03-26T17:33:46.195Z,7.89
2023-03-26T17:36:29.640Z,7.87
2023-03-26T17:39:01.997Z,7.86
2023-03-26T17:41:48.340Z,7.86
2023-03-26T17:44:30.591Z,7.91
2023-03-26T17:46:59.277Z,7.77
2023-03-26T17:49:29.521Z,7.78
2023-03-26T17:52:00.758Z,7.79
2023-03-26T17:54:32.692Z,7.79
2023-03-26T17:57:04.045Z,7.74
2023-03-26T17:59:33.283Z,7.79
2023-03-26T18:02:03.684Z,7.78
2023-03-26T18:04:33.220Z,7.73
2023-03-26T18:07:19.071Z,7.67
2023-03-26T18:10:00.504Z,7.72
2023-03-26T18:12:36.289Z,7.75
2023-03-26T18:15:19.014Z,7.66
2023-03-26T18:17:48.399Z,7.69
2023-03-26T18:20:26.386Z,7.68
2023-03-26T18:22:54.673Z,7.64
2023-03-26T18:25:26.352Z,7.71
2023-03-26T18:27:54.488Z,7.64
2023-03-26T18:30:26.028Z,7.69
2023-03-26T18:33:00.144Z,7.68
2023-03-26T18:35:29.321Z,7.71
2023-03-26T18:38:00.180Z,7.70
2023-03-26T18:40:34.169Z,7.77
2023-03-26T18:43:02.150Z,7.74
2023-03-26T18:45:31.704Z,7.65
2023-03-26T18:48:01.194Z,7.71
2023-03-26T18:50:30.082Z,7.63
2023-03-26T18:53:00.212Z,7.64
2023-03-26T18:55:28.780Z,7.68
2023-03-26T18:57:58.261Z,7.64
2023-03-26T19:00:28.149Z,7.64
2023-03-26T19:03:01.115Z,7.74
2023-03-26T19:05:29.556Z,7.79
2023-03-26T19:07:57.923Z,7.69
2023-03-26T19:10:26.662Z,7.72
2023-03-26T19:13:00.020Z,7.79
2023-03-26T19:15:29.384Z,7.75
2023-03-26T19:17:59.903Z,7.83
2023-03-26T19:20:29.672Z,7.81
2023-03-26T19:22:58.609Z,7.83
2023-03-26T19:25:28.135Z,7.81
2023-03-26T19:27:56.327Z,7.52
2023-03-26T19:30:30.526Z,7.44
2023-03-26T19:33:13.577Z,7.42
2023-03-26T19:35:42.525Z,7.28
2023-03-26T19:38:24.344Z,7.31
2023-03-26T19:40:53.309Z,7.30
2023-03-26T19:43:21.610Z,7.36
2023-03-26T19:45:59.674Z,7.14
2023-03-26T19:48:45.314Z,7.14
2023-03-26T19:51:20.316Z,6.91
2023-03-26T19:53:54.293Z,6.91
2023-03-26T19:56:23.157Z,6.84
2023-03-26T19:58:51.451Z,6.60
2023-03-26T20:01:22.020Z,6.47
2023-03-26T20:03:51.768Z,6.43
2023-03-26T20:06:27.852Z,6.28
2023-03-26T20:09:02.442Z,6.13
2023-03-26T20:11:33.594Z,6.06
2023-03-26T20:14:02.437Z,6.10
2023-03-26T20:16:32.392Z,5.95
2023-03-26T20:19:02.614Z,5.93
2023-03-26T20:21:32.496Z,5.95
2023-03-26T20:24:00.906Z,5.95
2023-03-26T20:26:28.905Z,5.92
2023-03-26T20:28:57.553Z,5.83
2023-03-26T20:31:26.901Z,5.92
2023-03-26T20:33:56.564Z,5.90
2023-03-26T20:36:32.999Z,5.89
2023-03-26T20:39:05.842Z,5.81
2023-03-26T20:41:34.637Z,5.72
2023-03-26T20:44:03.892Z,5.77
2023-03-26T20:46:33.365Z,5.83
2023-03-26T20:49:02.990Z,5.85
2023-03-26T20:51:30.946Z,5.74
2023-03-26T20:53:58.840Z,5.78
2023-03-26T20:56:27.182Z,5.72
2023-03-26T20:59:09.883Z,5.82
2023-03-26T21:01:39.109Z,5.82
2023-03-26T21:04:08.636Z,5.60
2023-03-26T21:06:36.606Z,5.55
2023-03-26T21:09:05.195Z,5.69
2023-03-26T21:11:41.012Z,5.60
2023-03-26T21:14:10.987Z,5.58
2023-03-26T21:16:39.502Z,5.54
2023-03-26T21:19:10.332Z,5.52
2023-03-26T21:21:47.767Z,5.50
2023-03-26T21:24:20.236Z,5.49
2023-03-26T21:26:51.255Z,5.58
2023-03-26T21:29:19.517Z,5.67
2023-03-26T21:31:47.839Z,5.67
2023-03-26T21:34:17.720Z,5.66
2023-03-26T21:36:46.732Z,5.69
2023-03-26T21:39:15.497Z,5.59
2023-03-26T21:41:46.157Z,5.37
2023-03-26T21:44:15.496Z,5.49
2023-03-26T21:46:44.189Z,5.52
2023-03-26T21:49:12.922Z,5.46
2023-03-26T21:51:42.847Z,5.30
2023-03-26T21:54:18.849Z,5.22
2023-03-26T21:56:50.025Z,5.29
2023-03-26T21:59:23.765Z,5.25
2023-03-26T22:01:55.841Z,5.33
2023-03-26T22:04:29.926Z,5.53
2023-03-26T22:07:02.342Z,5.48
2023-03-26T22:09:36.308Z,5.46
2023-03-26T22:12:05.082Z,5.50
2023-03-26T22:14:33.853Z,5.44
2023-03-26T22:17:01.849Z,5.57
2023-03-26T22:19:30.581Z,5.54
2023-03-26T22:22:00.287Z,5.43
2023-03-26T22:24:28.707Z,5.43
2023-03-26T22:26:57.327Z,5.42
2023-03-26T22:29:26.236Z,5.29
2023-03-26T22:31:54.420Z,5.30
2023-03-26T22:34:23.251Z,5.46
2023-03-26T22:36:52.631Z,5.38
2023-03-26T22:39:22.186Z,5.41
2023-03-26T22:41:50.209Z,5.23
2023-03-26T22:44:20.299Z,5.30
2023-03-26T22:46:51.827Z,5.27
2023-03-26T22:49:20.017Z,5.39
2023-03-26T22:51:48.161Z,5.21
2023-03-26T22:54:16.215Z,5.11
2023-03-26T22:56:45.995Z,5.13
2023-03-26T22:59:14.677Z,5.19
2023-03-26T23:01:44.276Z,5.21
2023-03-26T23:04:13.111Z,5.17
2023-03-26T23:06:59.979Z,5.27
2023-03-26T23:09:30.366Z,5.13
2023-03-26T23:11:59.918Z,5.23
2023-03-26T23:14:28.735Z,5.32
2023-03-26T23:16:57.345Z,5.31
2023-03-26T23:19:25.716Z,5.33
2023-03-26T23:21:53.830Z,5.33
2023-03-26T23:24:21.904Z,5.18
2023-03-26T23:26:51.298Z,5.28
2023-03-26T23:29:21.290Z,5.37
2023-03-26T23:31:49.448Z,5.12
2023-03-26T23:34:20.865Z,5.04
2023-03-26T23:36:49.657Z,5.04
2023-03-26T23:39:17.803Z,5.04
2023-03-26T23:41:46.252Z,5.05
2023-03-26T23:44:16.061Z,5.09
2023-03-26T23:46:45.459Z,5.00
2023-03-26T23:49:13.813Z,4.85
2023-03-26T23:51:45.035Z,5.03
2023-03-26T23:54:13.085Z,4.97
2023-03-26T23:56:41.133Z,4.79
2023-03-26T23:59:09.248Z,4.87
